sensor_id;sensor_type;location;lat;lon;timestamp;P1;durP1;ratioP1;P2;durP2;ratioP2
19191;SDS011;9728;48.194;16.346;2022-07-23T00:03:37;4.13;;;3.65;;
19191;SDS011;9728;48.194;16.346;2022-07-23T00:08:42;3.72;;;3.30;;
19191;SDS011;9728;48.194;16.346;2022-07-23T00:13:46;5.28;;;3.50;;
19191;SDS011;9728;48.194;16.346;2022-07-23T00:18:49;3.75;;;3.38;;
19191;SDS011;9728;48.194;16.346;2022-07-23T00:23:54;3.95;;;3.42;;
19191;SDS011;9728;48.194;16.346;2022-07-23T00:28:57;4.13;;;3.60;;
19191;SDS011;9728;48.194;16.346;2022-07-23T00:34:02;3.65;;;3.35;;
19191;SDS011;9728;48.194;16.346;2022-07-23T00:39:07;3.88;;;3.00;;
19191;SDS011;9728;48.194;16.346;2022-07-23T00:44:14;4.28;;;3.35;;
19191;SDS011;9728;48.194;16.346;2022-07-23T00:49:19;4.38;;;3.90;;
19191;SDS011;9728;48.194;16.346;2022-07-23T00:54:25;4.88;;;3.47;;
19191;SDS011;9728;48.194;16.346;2022-07-23T00:59:29;3.80;;;3.50;;
19191;SDS011;9728;48.194;16.346;2022-07-23T01:04:32;4.80;;;3.78;;
19191;SDS011;9728;48.194;16.346;2022-07-23T01:09:37;4.60;;;3.88;;
19191;SDS011;9728;48.194;16.346;2022-07-23T01:14:41;4.18;;;3.78;;
19191;SDS011;9728;48.194;16.346;2022-07-23T01:19:45;4.32;;;3.92;;
19191;SDS011;9728;48.194;16.346;2022-07-23T01:24:50;4.07;;;3.53;;
19191;SDS011;9728;48.194;16.346;2022-07-23T01:29:58;4.80;;;3.67;;
19191;SDS011;9728;48.194;16.346;2022-07-23T01:35:03;3.80;;;3.50;;
19191;SDS011;9728;48.194;16.346;2022-07-23T01:40:10;3.88;;;3.55;;
19191;SDS011;9728;48.194;16.346;2022-07-23T01:45:13;5.03;;;3.63;;
19191;SDS011;9728;48.194;16.346;2022-07-23T01:50:22;4.30;;;3.90;;
19191;SDS011;9728;48.194;16.346;2022-07-23T01:55:45;4.20;;;3.72;;
19191;SDS011;9728;48.194;16.346;2022-07-23T02:00:48;4.43;;;4.03;;
19191;SDS011;9728;48.194;16.346;2022-07-23T02:05:53;8.70;;;4.60;;
19191;SDS011;9728;48.194;16.346;2022-07-23T02:11:00;4.60;;;4.20;;
19191;SDS011;9728;48.194;16.346;2022-07-23T02:16:03;5.28;;;4.78;;
19191;SDS011;9728;48.194;16.346;2022-07-23T02:21:07;4.85;;;4.43;;
19191;SDS011;9728;48.194;16.346;2022-07-23T02:26:12;4.63;;;4.22;;
19191;SDS011;9728;48.194;16.346;2022-07-23T02:31:23;5.20;;;4.40;;
19191;SDS011;9728;48.194;16.346;2022-07-23T02:36:26;5.85;;;4.55;;
19191;SDS011;9728;48.194;16.346;2022-07-23T02:41:32;5.25;;;4.50;;
19191;SDS011;9728;48.194;16.346;2022-07-23T02:46:36;4.38;;;3.97;;
19191;SDS011;9728;48.194;16.346;2022-07-23T02:51:40;5.18;;;4.03;;
19191;SDS011;9728;48.194;16.346;2022-07-23T02:56:46;4.43;;;4.03;;
19191;SDS011;9728;48.194;16.346;2022-07-23T03:01:52;5.05;;;4.50;;
19191;SDS011;9728;48.194;16.346;2022-07-23T03:06:55;4.78;;;4.30;;
19191;SDS011;9728;48.194;16.346;2022-07-23T03:12:01;5.07;;;4.20;;
19191;SDS011;9728;48.194;16.346;2022-07-23T03:17:05;5.15;;;4.50;;
19191;SDS011;9728;48.194;16.346;2022-07-23T03:22:10;5.55;;;4.57;;
19191;SDS011;9728;48.194;16.346;2022-07-23T03:27:14;4.95;;;4.53;;
19191;SDS011;9728;48.194;16.346;2022-07-23T03:32:18;4.90;;;4.45;;
19191;SDS011;9728;48.194;16.346;2022-07-23T03:37:22;4.90;;;4.40;;
19191;SDS011;9728;48.194;16.346;2022-07-23T03:42:27;4.20;;;3.88;;
19191;SDS011;9728;48.194;16.346;2022-07-23T03:47:31;4.47;;;4.07;;
19191;SDS011;9728;48.194;16.346;2022-07-23T03:52:34;5.05;;;4.55;;
19191;SDS011;9728;48.194;16.346;2022-07-23T03:57:39;5.03;;;4.63;;
19191;SDS011;9728;48.194;16.346;2022-07-23T04:02:43;5.03;;;4.25;;
19191;SDS011;9728;48.194;16.346;2022-07-23T04:07:47;4.55;;;3.88;;
19191;SDS011;9728;48.194;16.346;2022-07-23T04:12:52;4.50;;;4.10;;
19191;SDS011;9728;48.194;16.346;2022-07-23T04:17:56;4.50;;;4.10;;
19191;SDS011;9728;48.194;16.346;2022-07-23T04:23:09;4.20;;;3.85;;
19191;SDS011;9728;48.194;16.346;2022-07-23T04:28:16;4.18;;;3.83;;
19191;SDS011;9728;48.194;16.346;2022-07-23T04:33:19;4.20;;;3.80;;
19191;SDS011;9728;48.194;16.346;2022-07-23T04:38:25;4.95;;;4.45;;
19191;SDS011;9728;48.194;16.346;2022-07-23T04:43:34;5.70;;;4.15;;
19191;SDS011;9728;48.194;16.346;2022-07-23T04:48:38;4.72;;;4.25;;
19191;SDS011;9728;48.194;16.346;2022-07-23T04:53:44;3.92;;;3.63;;
19191;SDS011;9728;48.194;16.346;2022-07-23T04:58:49;4.93;;;4.43;;
19191;SDS011;9728;48.194;16.346;2022-07-23T05:03:52;4.22;;;3.83;;
19191;SDS011;9728;48.194;16.346;2022-07-23T05:08:59;4.22;;;3.83;;
19191;SDS011;9728;48.194;16.346;2022-07-23T05:14:05;4.38;;;3.97;;
19191;SDS011;9728;48.194;16.346;2022-07-23T05:19:08;4.85;;;3.95;;
19191;SDS011;9728;48.194;16.346;2022-07-23T05:24:12;4.65;;;4.25;;
19191;SDS011;9728;48.194;16.346;2022-07-23T05:29:16;4.82;;;4.03;;
19191;SDS011;9728;48.194;16.346;2022-07-23T05:34:20;4.47;;;4.07;;
19191;SDS011;9728;48.194;16.346;2022-07-23T05:39:23;3.92;;;3.63;;
19191;SDS011;9728;48.194;16.346;2022-07-23T05:44:28;4.55;;;4.03;;
19191;SDS011;9728;48.194;16.346;2022-07-23T05:49:36;4.88;;;3.92;;
19191;SDS011;9728;48.194;16.346;2022-07-23T05:55:02;4.35;;;3.95;;
19191;SDS011;9728;48.194;16.346;2022-07-23T06:00:09;4.45;;;4.05;;
19191;SDS011;9728;48.194;16.346;2022-07-23T06:05:18;5.25;;;4.40;;
19191;SDS011;9728;48.194;16.346;2022-07-23T06:10:22;4.97;;;4.47;;
19191;SDS011;9728;48.194;16.346;2022-07-23T06:15:27;4.38;;;3.97;;
19191;SDS011;9728;48.194;16.346;2022-07-23T06:20:32;4.88;;;4.35;;
19191;SDS011;9728;48.194;16.346;2022-07-23T06:25:35;4.35;;;3.95;;
19191;SDS011;9728;48.194;16.346;2022-07-23T06:30:40;5.45;;;3.92;;
19191;SDS011;9728;48.194;16.346;2022-07-23T06:35:44;4.10;;;3.70;;
19191;SDS011;9728;48.194;16.346;2022-07-23T06:40:47;3.90;;;3.50;;
19191;SDS011;9728;48.194;16.346;2022-07-23T06:45:52;3.90;;;3.25;;
19191;SDS011;9728;48.194;16.346;2022-07-23T06:50:56;3.22;;;2.92;;
19191;SDS011;9728;48.194;16.346;2022-07-23T06:55:59;3.67;;;2.85;;
19191;SDS011;9728;48.194;16.346;2022-07-23T07:01:04;4.57;;;3.28;;
19191;SDS011;9728;48.194;16.346;2022-07-23T07:06:07;3.33;;;3.03;;
19191;SDS011;9728;48.194;16.346;2022-07-23T07:11:11;2.67;;;2.47;;
19191;SDS011;9728;48.194;16.346;2022-07-23T07:16:16;3.63;;;2.95;;
19191;SDS011;9728;48.194;16.346;2022-07-23T07:21:19;2.70;;;2.50;;
19191;SDS011;9728;48.194;16.346;2022-07-23T07:26:23;3.05;;;2.70;;
19191;SDS011;9728;48.194;16.346;2022-07-23T07:31:28;4.55;;;2.97;;
19191;SDS011;9728;48.194;16.346;2022-07-23T07:36:31;4.10;;;2.20;;
19191;SDS011;9728;48.194;16.346;2022-07-23T07:41:36;2.63;;;2.28;;
19191;SDS011;9728;48.194;16.346;2022-07-23T07:46:41;2.42;;;2.22;;
19191;SDS011;9728;48.194;16.346;2022-07-23T07:51:45;2.38;;;2.17;;
19191;SDS011;9728;48.194;16.346;2022-07-23T07:56:48;2.65;;;2.45;;
19191;SDS011;9728;48.194;16.346;2022-07-23T08:01:53;2.55;;;2.30;;
19191;SDS011;9728;48.194;16.346;2022-07-23T08:06:57;2.50;;;2.30;;
19191;SDS011;9728;48.194;16.346;2022-07-23T08:12:00;2.42;;;2.22;;
19191;SDS011;9728;48.194;16.346;2022-07-23T08:17:05;3.50;;;2.50;;
19191;SDS011;9728;48.194;16.346;2022-07-23T08:22:16;2.50;;;2.30;;
19191;SDS011;9728;48.194;16.346;2022-07-23T08:27:19;3.17;;;2.17;;
19191;SDS011;9728;48.194;16.346;2022-07-23T08:32:24;3.35;;;2.40;;
19191;SDS011;9728;48.194;16.346;2022-07-23T08:37:45;2.75;;;2.55;;
19191;SDS011;9728;48.194;16.346;2022-07-23T08:42:49;4.22;;;2.40;;
19191;SDS011;9728;48.194;16.346;2022-07-23T08:47:56;3.22;;;2.70;;
19191;SDS011;9728;48.194;16.346;2022-07-23T08:53:05;2.58;;;2.38;;
19191;SDS011;9728;48.194;16.346;2022-07-23T08:58:09;2.88;;;2.67;;
19191;SDS011;9728;48.194;16.346;2022-07-23T09:03:15;3.05;;;2.75;;
19191;SDS011;9728;48.194;16.346;2022-07-23T09:08:21;2.47;;;2.28;;
19191;SDS011;9728;48.194;16.346;2022-07-23T09:13:31;2.60;;;2.40;;
19191;SDS011;9728;48.194;16.346;2022-07-23T09:18:39;4.25;;;3.25;;
19191;SDS011;9728;48.194;16.346;2022-07-23T09:23:46;2.88;;;2.58;;
19191;SDS011;9728;48.194;16.346;2022-07-23T09:28:52;4.35;;;2.67;;
19191;SDS011;9728;48.194;16.346;2022-07-23T09:34:06;3.00;;;2.72;;
19191;SDS011;9728;48.194;16.346;2022-07-23T09:39:11;3.10;;;2.80;;
19191;SDS011;9728;48.194;16.346;2022-07-23T09:44:16;3.70;;;2.67;;
19191;SDS011;9728;48.194;16.346;2022-07-23T09:49:29;3.10;;;2.80;;
19191;SDS011;9728;48.194;16.346;2022-07-23T09:54:33;2.67;;;2.47;;
19191;SDS011;9728;48.194;16.346;2022-07-23T09:59:38;3.35;;;2.80;;
19191;SDS011;9728;48.194;16.346;2022-07-23T10:04:44;2.90;;;2.65;;
19191;SDS011;9728;48.194;16.346;2022-07-23T10:10:00;2.97;;;2.78;;
19191;SDS011;9728;48.194;16.346;2022-07-23T10:15:23;3.22;;;2.75;;
19191;SDS011;9728;48.194;16.346;2022-07-23T10:20:29;3.10;;;2.80;;
19191;SDS011;9728;48.194;16.346;2022-07-23T10:25:32;3.00;;;2.78;;
19191;SDS011;9728;48.194;16.346;2022-07-23T10:30:45;3.15;;;2.85;;
19191;SDS011;9728;48.194;16.346;2022-07-23T10:36:07;3.75;;;3.35;;
19191;SDS011;9728;48.194;16.346;2022-07-23T10:41:15;2.85;;;2.65;;
19191;SDS011;9728;48.194;16.346;2022-07-23T10:46:34;3.47;;;3.17;;
19191;SDS011;9728;48.194;16.346;2022-07-23T10:57:25;3.05;;;2.75;;
19191;SDS011;9728;48.194;16.346;2022-07-23T11:02:29;3.35;;;2.78;;
19191;SDS011;9728;48.194;16.346;2022-07-23T11:07:33;4.93;;;3.33;;
19191;SDS011;9728;48.194;16.346;2022-07-23T11:12:38;3.25;;;2.95;;
19191;SDS011;9728;48.194;16.346;2022-07-23T11:23:03;3.92;;;3.25;;
19191;SDS011;9728;48.194;16.346;2022-07-23T11:28:09;3.42;;;3.13;;
19191;SDS011;9728;48.194;16.346;2022-07-23T11:33:18;3.55;;;3.17;;
19191;SDS011;9728;48.194;16.346;2022-07-23T11:38:23;3.67;;;3.25;;
19191;SDS011;9728;48.194;16.346;2022-07-23T11:43:27;3.53;;;3.22;;
19191;SDS011;9728;48.194;16.346;2022-07-23T11:48:31;3.28;;;2.97;;
19191;SDS011;9728;48.194;16.346;2022-07-23T11:53:41;3.38;;;3.08;;
19191;SDS011;9728;48.194;16.346;2022-07-23T11:58:55;3.10;;;2.90;;
19191;SDS011;9728;48.194;16.346;2022-07-23T12:04:01;3.45;;;3.15;;
19191;SDS011;9728;48.194;16.346;2022-07-23T12:09:06;4.07;;;3.67;;
19191;SDS011;9728;48.194;16.346;2022-07-23T12:14:11;3.70;;;3.28;;
19191;SDS011;9728;48.194;16.346;2022-07-23T12:19:15;3.90;;;3.50;;
19191;SDS011;9728;48.194;16.346;2022-07-23T12:24:18;5.03;;;3.67;;
19191;SDS011;9728;48.194;16.346;2022-07-23T12:29:23;3.10;;;2.83;;
19191;SDS011;9728;48.194;16.346;2022-07-23T12:34:37;3.42;;;3.13;;
19191;SDS011;9728;48.194;16.346;2022-07-23T12:39:41;3.47;;;2.75;;
19191;SDS011;9728;48.194;16.346;2022-07-23T12:55:49;2.95;;;2.53;;
19191;SDS011;9728;48.194;16.346;2022-07-23T13:01:24;2.40;;;2.20;;
19191;SDS011;9728;48.194;16.346;2022-07-23T13:06:29;2.15;;;1.95;;
19191;SDS011;9728;48.194;16.346;2022-07-23T13:11:34;2.72;;;2.13;;
19191;SDS011;9728;48.194;16.346;2022-07-23T13:16:40;2.58;;;1.83;;
19191;SDS011;9728;48.194;16.346;2022-07-23T13:21:44;2.65;;;1.90;;
19191;SDS011;9728;48.194;16.346;2022-07-23T13:26:48;1.35;;;1.25;;
19191;SDS011;9728;48.194;16.346;2022-07-23T13:31:54;1.75;;;1.65;;
19191;SDS011;9728;48.194;16.346;2022-07-23T13:36:57;1.88;;;1.77;;
19191;SDS011;9728;48.194;16.346;2022-07-23T13:42:01;1.77;;;1.50;;
19191;SDS011;9728;48.194;16.346;2022-07-23T13:47:09;1.40;;;1.30;;
19191;SDS011;9728;48.194;16.346;2022-07-23T13:52:12;1.63;;;1.52;;
19191;SDS011;9728;48.194;16.346;2022-07-23T13:57:15;1.40;;;1.30;;
19191;SDS011;9728;48.194;16.346;2022-07-23T14:02:20;1.77;;;1.50;;
19191;SDS011;9728;48.194;16.346;2022-07-23T14:07:25;2.03;;;1.90;;
19191;SDS011;9728;48.194;16.346;2022-07-23T14:12:29;2.58;;;1.80;;
19191;SDS011;9728;48.194;16.346;2022-07-23T14:17:37;1.58;;;1.48;;
19191;SDS011;9728;48.194;16.346;2022-07-23T14:22:41;1.40;;;1.30;;
19191;SDS011;9728;48.194;16.346;2022-07-23T14:27:45;1.35;;;1.25;;
19191;SDS011;9728;48.194;16.346;2022-07-23T14:32:50;1.92;;;1.60;;
19191;SDS011;9728;48.194;16.346;2022-07-23T14:37:54;1.60;;;1.38;;
19191;SDS011;9728;48.194;16.346;2022-07-23T14:42:58;1.88;;;1.60;;
19191;SDS011;9728;48.194;16.346;2022-07-23T14:48:03;1.52;;;1.42;;
19191;SDS011;9728;48.194;16.346;2022-07-23T14:53:08;2.65;;;1.70;;
19191;SDS011;9728;48.194;16.346;2022-07-23T14:58:12;1.83;;;1.65;;
19191;SDS011;9728;48.194;16.346;2022-07-23T15:03:17;2.35;;;2.15;;
19191;SDS011;9728;48.194;16.346;2022-07-23T15:08:20;1.90;;;1.80;;
19191;SDS011;9728;48.194;16.346;2022-07-23T15:13:24;2.10;;;1.80;;
19191;SDS011;9728;48.194;16.346;2022-07-23T15:18:30;2.30;;;2.10;;
19191;SDS011;9728;48.194;16.346;2022-07-23T15:23:33;2.38;;;2.17;;
19191;SDS011;9728;48.194;16.346;2022-07-23T15:28:39;1.80;;;1.70;;
19191;SDS011;9728;48.194;16.346;2022-07-23T15:33:45;2.28;;;2.08;;
19191;SDS011;9728;48.194;16.346;2022-07-23T15:38:48;1.88;;;1.77;;
19191;SDS011;9728;48.194;16.346;2022-07-23T15:43:52;4.03;;;2.10;;
19191;SDS011;9728;48.194;16.346;2022-07-23T15:48:58;2.67;;;2.10;;
19191;SDS011;9728;48.194;16.346;2022-07-23T15:54:03;2.20;;;2.00;;
19191;SDS011;9728;48.194;16.346;2022-07-23T15:59:07;2.40;;;2.20;;
19191;SDS011;9728;48.194;16.346;2022-07-23T16:04:13;2.33;;;2.13;;
19191;SDS011;9728;48.194;16.346;2022-07-23T16:09:16;2.42;;;2.20;;
19191;SDS011;9728;48.194;16.346;2022-07-23T16:14:20;2.28;;;2.08;;
19191;SDS011;9728;48.194;16.346;2022-07-23T16:19:25;2.17;;;1.98;;
19191;SDS011;9728;48.194;16.346;2022-07-23T16:24:29;2.00;;;1.80;;
19191;SDS011;9728;48.194;16.346;2022-07-23T16:29:32;2.45;;;2.03;;
19191;SDS011;9728;48.194;16.346;2022-07-23T16:34:37;2.40;;;2.20;;
19191;SDS011;9728;48.194;16.346;2022-07-23T16:39:41;2.70;;;2.50;;
19191;SDS011;9728;48.194;16.346;2022-07-23T16:44:44;1.88;;;1.77;;
19191;SDS011;9728;48.194;16.346;2022-07-23T16:49:49;2.03;;;1.90;;
19191;SDS011;9728;48.194;16.346;2022-07-23T16:54:53;2.80;;;1.88;;
19191;SDS011;9728;48.194;16.346;2022-07-23T16:59:57;2.05;;;1.85;;
19191;SDS011;9728;48.194;16.346;2022-07-23T17:05:02;2.53;;;2.10;;
19191;SDS011;9728;48.194;16.346;2022-07-23T17:10:06;2.25;;;2.00;;
19191;SDS011;9728;48.194;16.346;2022-07-23T17:15:10;2.50;;;2.05;;
19191;SDS011;9728;48.194;16.346;2022-07-23T17:20:16;2.33;;;2.10;;
19191;SDS011;9728;48.194;16.346;2022-07-23T17:25:20;3.38;;;2.10;;
19191;SDS011;9728;48.194;16.346;2022-07-23T17:30:25;2.17;;;2.03;;
19191;SDS011;9728;48.194;16.346;2022-07-23T17:35:30;2.20;;;2.00;;
19191;SDS011;9728;48.194;16.346;2022-07-23T17:40:33;2.10;;;1.92;;
19191;SDS011;9728;48.194;16.346;2022-07-23T17:45:37;2.45;;;2.25;;
19191;SDS011;9728;48.194;16.346;2022-07-23T17:50:44;2.78;;;2.20;;
19191;SDS011;9728;48.194;16.346;2022-07-23T17:55:53;2.53;;;2.33;;
19191;SDS011;9728;48.194;16.346;2022-07-23T18:00:57;2.67;;;2.38;;
19191;SDS011;9728;48.194;16.346;2022-07-23T18:06:02;3.28;;;2.53;;
19191;SDS011;9728;48.194;16.346;2022-07-23T18:11:06;3.00;;;2.25;;
19191;SDS011;9728;48.194;16.346;2022-07-23T18:16:10;2.53;;;2.33;;
19191;SDS011;9728;48.194;16.346;2022-07-23T18:21:14;3.28;;;2.20;;
19191;SDS011;9728;48.194;16.346;2022-07-23T18:26:18;2.55;;;2.25;;
19191;SDS011;9728;48.194;16.346;2022-07-23T18:31:22;2.30;;;2.10;;
19191;SDS011;9728;48.194;16.346;2022-07-23T18:36:26;2.40;;;2.20;;
19191;SDS011;9728;48.194;16.346;2022-07-23T18:41:32;2.40;;;2.20;;
19191;SDS011;9728;48.194;16.346;2022-07-23T18:46:36;3.10;;;2.75;;
19191;SDS011;9728;48.194;16.346;2022-07-23T18:51:41;2.72;;;2.40;;
19191;SDS011;9728;48.194;16.346;2022-07-23T18:56:44;3.28;;;2.55;;
19191;SDS011;9728;48.194;16.346;2022-07-23T19:01:48;2.80;;;2.60;;
19191;SDS011;9728;48.194;16.346;2022-07-23T19:06:53;2.22;;;2.10;;
19191;SDS011;9728;48.194;16.346;2022-07-23T19:11:56;2.58;;;2.38;;
19191;SDS011;9728;48.194;16.346;2022-07-23T19:16:59;2.40;;;2.05;;
19191;SDS011;9728;48.194;16.346;2022-07-23T19:22:04;2.67;;;2.47;;
19191;SDS011;9728;48.194;16.346;2022-07-23T19:27:10;2.90;;;2.60;;
19191;SDS011;9728;48.194;16.346;2022-07-23T19:32:13;2.50;;;2.30;;
19191;SDS011;9728;48.194;16.346;2022-07-23T19:37:19;2.60;;;2.40;;
19191;SDS011;9728;48.194;16.346;2022-07-23T19:42:22;3.72;;;2.92;;
19191;SDS011;9728;48.194;16.346;2022-07-23T19:47:25;2.50;;;2.30;;
19191;SDS011;9728;48.194;16.346;2022-07-23T19:52:31;2.92;;;2.50;;
19191;SDS011;9728;48.194;16.346;2022-07-23T19:57:35;2.60;;;2.40;;
19191;SDS011;9728;48.194;16.346;2022-07-23T20:02:39;2.63;;;2.42;;
19191;SDS011;9728;48.194;16.346;2022-07-23T20:07:44;2.63;;;2.42;;
19191;SDS011;9728;48.194;16.346;2022-07-23T20:12:48;3.60;;;2.65;;
19191;SDS011;9728;48.194;16.346;2022-07-23T20:17:53;3.55;;;2.08;;
19191;SDS011;9728;48.194;16.346;2022-07-23T20:22:59;3.50;;;2.55;;
19191;SDS011;9728;48.194;16.346;2022-07-23T20:28:02;2.35;;;2.10;;
19191;SDS011;9728;48.194;16.346;2022-07-23T20:33:07;1.88;;;1.77;;
19191;SDS011;9728;48.194;16.346;2022-07-23T20:38:11;2.22;;;2.03;;
19191;SDS011;9728;48.194;16.346;2022-07-23T20:43:16;2.28;;;2.08;;
19191;SDS011;9728;48.194;16.346;2022-07-23T20:48:19;3.00;;;2.08;;
19191;SDS011;9728;48.194;16.346;2022-07-23T20:53:30;2.00;;;1.85;;
19191;SDS011;9728;48.194;16.346;2022-07-23T20:58:33;3.50;;;2.15;;
19191;SDS011;9728;48.194;16.346;2022-07-23T21:03:37;4.15;;;2.00;;
19191;SDS011;9728;48.194;16.346;2022-07-23T21:08:42;3.08;;;2.30;;
19191;SDS011;9728;48.194;16.346;2022-07-23T21:13:45;3.00;;;1.95;;
19191;SDS011;9728;48.194;16.346;2022-07-23T21:18:49;2.25;;;2.05;;
19191;SDS011;9728;48.194;16.346;2022-07-23T21:23:53;2.03;;;1.92;;
19191;SDS011;9728;48.194;16.346;2022-07-23T21:28:57;2.67;;;2.47;;
19191;SDS011;9728;48.194;16.346;2022-07-23T21:34:02;2.28;;;2.00;;
19191;SDS011;9728;48.194;16.346;2022-07-23T21:39:07;2.05;;;1.85;;
19191;SDS011;9728;48.194;16.346;2022-07-23T21:44:10;2.20;;;2.00;;
19191;SDS011;9728;48.194;16.346;2022-07-23T21:49:14;2.22;;;1.98;;
19191;SDS011;9728;48.194;16.346;2022-07-23T21:54:19;2.20;;;2.00;;
19191;SDS011;9728;48.194;16.346;2022-07-23T21:59:23;2.55;;;2.22;;
19191;SDS011;9728;48.194;16.346;2022-07-23T22:04:26;2.40;;;2.20;;
19191;SDS011;9728;48.194;16.346;2022-07-23T22:09:32;2.20;;;2.00;;
19191;SDS011;9728;48.194;16.346;2022-07-23T22:14:35;2.25;;;2.05;;
19191;SDS011;9728;48.194;16.346;2022-07-23T22:19:39;2.35;;;2.15;;
19191;SDS011;9728;48.194;16.346;2022-07-23T22:24:44;2.53;;;2.33;;
19191;SDS011;9728;48.194;16.346;2022-07-23T22:29:47;2.63;;;2.22;;
19191;SDS011;9728;48.194;16.346;2022-07-23T22:34:51;2.50;;;2.30;;
19191;SDS011;9728;48.194;16.346;2022-07-23T22:39:56;2.45;;;2.10;;
19191;SDS011;9728;48.194;16.346;2022-07-23T22:44:59;2.33;;;2.13;;
19191;SDS011;9728;48.194;16.346;2022-07-23T22:50:03;3.25;;;2.22;;
19191;SDS011;9728;48.194;16.346;2022-07-23T22:55:13;2.17;;;1.98;;
19191;SDS011;9728;48.194;16.346;2022-07-23T23:00:17;2.42;;;2.00;;
19191;SDS011;9728;48.194;16.346;2022-07-23T23:05:21;2.85;;;2.00;;
19191;SDS011;9728;48.194;16.346;2022-07-23T23:10:26;1.85;;;1.75;;
19191;SDS011;9728;48.194;16.346;2022-07-23T23:15:29;2.17;;;1.98;;
19191;SDS011;9728;48.194;16.346;2022-07-23T23:20:33;2.17;;;2.03;;
19191;SDS011;9728;48.194;16.346;2022-07-23T23:25:38;2.35;;;2.15;;
19191;SDS011;9728;48.194;16.346;2022-07-23T23:30:41;2.10;;;1.90;;
19191;SDS011;9728;48.194;16.346;2022-07-23T23:35:47;2.50;;;2.13;;
19191;SDS011;9728;48.194;16.346;2022-07-23T23:40:52;2.53;;;2.33;;
19191;SDS011;9728;48.194;16.346;2022-07-23T23:45:55;2.30;;;2.10;;
19191;SDS011;9728;48.194;16.346;2022-07-23T23:50:59;4.90;;;2.33;;
19191;SDS011;9728;48.194;16.346;2022-07-23T23:56:04;2.38;;;1.92;;
